VKO weather

Vnukovo International Airport
Moscow, Moscow Oblast, Russia

Public forecast

Using degrees Celsius for public forecast. Weather courtesy of forecast.io.

METAR (pilot weather report)

Retrieved 2019/03/20 12:30 UTC (27 minutes ago):

UUWW 201230Z 27007MPS 9999 BKN035 04/M04 Q1022 R24/190060 NOSIG

TAF (pilot weather forecast)

Retrieved 2019/03/20 12:21 UTC (36 minutes ago):

TAF UUWW 201053Z 2012/2112 26006G13MPS 8000 BKN015 TX03/2012Z TNM01/2104Z TEMPO 2012/2018 3100 -SHSNRA BKN011 SCT020CB BECMG 2018/2019 20003MPS BKN011 FM210300 22005G12MPS 3100 -SN OVC011 TEMPO 2105/2112 1500 SHSN BKN005 BKN015CB BECMG 2109/2111 28005G12MPS